Woodstock, Georgia
Current Conditions -  °F | °C
As of 12:47 PM on Thursday 30 Oct 2014 (Local Time) from KRYY Reporting Station
Clear Clear  
Wind Chill: 63°   Ceiling: Unl
Heat Index: 63°   Visibility: 10mi
Dew Point: 37°   Wind: 7mph
Humidity: 39%   Direction: 340°NNW
Pressure: 30.09"   Gusts: NA
Location:  34.1°N, 84.51°W
Report Text: KRYY 301647Z 34006KT 10SM SKC 17/03 A3009
Loading
Personal Weather Stations






























Interactive Weather Map
Tropical Storm Tracking
New forecast layout! Learn more

10-Day Weather Forecast

Advertisements
Track Severe Weather on mobile